Aviation Digital Data Service (ADDS)

Output produced by METARs form (2023 UTC 17 November 2019)
found at http://www.aviationweather.gov/metar/data/
 
Forecast for: UKKK (KIEV/ZHYLIANY , UA)
Text: TAF UKKK 171702Z 1718/1818 12003G08MPS 0300 FG VV001 TX08/1812Z TN03/1805Z
Forecast period: 1800 UTC 17 November 2019 to 0800 UTC 18 November 2019
Forecast type: FROM: standard forecast or significant change
Winds: from the ESE (120 degrees) at 7 MPH (6 knots; 3.1 m/s)
gusting to 18 MPH (16 knots; 8.2 m/s)
Visibility: 0.19 miles (0.31 km)
Ceiling: indefinite ceiling with vertical visibility of 100 feet AGL
Clouds: obscured sky
Weather: FG  (fog)
Text: TEMPO 1718/1807 1200 -DZ BR OVC003
Forecast period: 1800 UTC 17 November 2019 to 0700 UTC 18 November 2019
Forecast type: TEMPORARY: The following changes expected for less than half the time period
Visibility: 0.75 miles (1.21 km)
Ceiling: 300 feet AGL
Clouds: overcast cloud deck at 300 feet AGL
Weather: -DZ BR  (light drizzle, mist)
Text: BECMG 1808/0810 14004G09MPS 4000 BR OVC007
Forecast period: 0800 to 1800 UTC 18 November 2019
Forecast type: BECOMING: Conditions expected to become as follows by 1000 UTC 08 November 2019
Winds: from the SE (140 degrees) at 9 MPH (8 knots; 4.1 m/s)
gusting to 20 MPH (17 knots; 8.7 m/s)
Visibility: 2.49 miles (4.01 km)
Ceiling: 700 feet AGL
Clouds: overcast cloud deck at 700 feet AGL
Weather: BR  (mist)